Falls International Airport
KINL : now visible

Airfield :











YOU CAN JOIN US ON...

 
LOGIN :

Register | Disclaimer

   EN    FR    IT 

 









Legend :    VFR   Marginal VFR   IFR   Intensive IFR   Very Intensive IFR
Visi :
Ceiling :
>= 8 km
>= 3000ft
5 to 8 km
1000 to 3000 ft
1500m to 5 km
500 to 1000 ft
800 to 1500m
200 to 500 ft
< 800m
< 200 ft
Symbols :   Thunderstorms  Fog  Heavy snow  Heavy precipitations  Wind > 20 kt






- Airport Elevation : 1185 ft
- IATA code : INL


KINL - Falls International

CURRENT METAR :
  • 202149Z AUTO 02004KT 10SM SCT022 SCT033 OVC085 18/13 A2962 RMK AO2 RAE03 P0000

EXPIRED METARs :
  • 202131Z AUTO 04005KT 10SM BKN021 BKN032 BKN070 17/12 A2962 RMK AO2 RAE03 P0000 T01720122
  • 202054Z AUTO 28006KT 10SM -RA FEW022 BKN065 OVC090 18/14 A2962 RMK AO2 RAB36 SLP031 P0000 60001 T01780139 56013
  • 201954Z AUTO 27005KT 10SM SCT016 SCT023 17/14 A2963 RMK AO2 RAE20B25E34 SLP036 P0000 T01720139
  • 201939Z AUTO 27006KT 10SM SCT014 BKN022 BKN080 17/14 A2963 RMK AO2 RAE20B25E34 P0000 T01720144
  • 201930Z AUTO 28006KT 10SM -RA SCT014 SCT025 BKN065 17/14 A2963 RMK AO2 RAE20B25 P0000 T01720144
  • 201921Z AUTO 29006KT 10SM BKN012 BKN050 OVC090 17/14 A2963 RMK AO2 RAE20 P0000 T01720144

TAF KINL
Valid from the 20 at 18:00 until the 21 at 18:00 UTC


201726Z 2018/2118 27006KT P6SM SHRA OVC060
FM210000 34012G23KT P6SM BKN060
KZMP FIR / North America



MET'MAP, your aeronautical weather chart ! - Copyright ORBIFLY December 2007 - Disclaimer

ORBIFLY MET'MAP TEAM :

Programming & Development : Alexandra Zaïnal
Concept & original design : Baudouin d'Aumeries
Assistance for programming : Marc-Olivier Méhu
Technical & hardware support : Manuel Goepfert

Contact : metmap@orbifly.com




SOURCES & CREDITS :

   NOAA       Earth
Advisory